createdAt,value
2023-04-09T00:03:31.740Z,101544.41
2023-04-09T00:08:39.790Z,101550.44
2023-04-09T00:13:46.327Z,101547.84
2023-04-09T00:18:53.347Z,101546.97
2023-04-09T00:24:01.560Z,101538.31
2023-04-09T00:29:07.953Z,101542.63
2023-04-09T00:34:14.871Z,101543.47
2023-04-09T00:39:22.534Z,101541.75
2023-04-09T00:44:28.833Z,101533.09
2023-04-09T00:49:36.207Z,101531.38
2023-04-09T00:54:44.527Z,101528.78
2023-04-09T00:59:50.904Z,101525.31
2023-04-09T01:04:57.079Z,101534.84
2023-04-09T01:10:23.159Z,101532.22
2023-04-09T01:15:36.714Z,101517.50
2023-04-09T01:20:58.334Z,101534.84
2023-04-09T01:26:21.986Z,101535.69
2023-04-09T01:31:38.712Z,101524.41
2023-04-09T01:36:50.987Z,101528.75
2023-04-09T01:41:58.401Z,101527.00
2023-04-09T01:47:06.474Z,101524.38
2023-04-09T01:52:13.462Z,101536.50
2023-04-09T01:57:21.080Z,101533.91
2023-04-09T02:02:43.240Z,101526.13
2023-04-09T02:07:56.261Z,101533.88
2023-04-09T02:13:06.692Z,101537.34
2023-04-09T02:18:27.679Z,101534.75
2023-04-09T02:23:35.384Z,101534.75
2023-04-09T02:28:41.783Z,101533.88
2023-04-09T02:33:49.812Z,101548.59
2023-04-09T02:38:56.528Z,101551.19
2023-04-09T02:44:02.986Z,101546.00
2023-04-09T02:49:10.826Z,101556.38
2023-04-09T02:54:17.254Z,101552.03
2023-04-09T02:59:23.913Z,101555.50
2023-04-09T03:04:32.226Z,101556.38
2023-04-09T03:09:38.622Z,101557.22
2023-04-09T03:14:44.834Z,101551.16
2023-04-09T03:19:52.725Z,101550.31
2023-04-09T03:25:00.059Z,101558.06
2023-04-09T03:30:07.736Z,101555.50
2023-04-09T03:35:22.143Z,101554.59
2023-04-09T03:40:33.130Z,101557.22
2023-04-09T03:45:39.649Z,101550.25
2023-04-09T03:50:58.862Z,101552.84
2023-04-09T03:56:13.680Z,101545.94
2023-04-09T04:01:20.357Z,101546.81
2023-04-09T04:06:37.632Z,101549.38
2023-04-09T04:11:59.472Z,101540.75
2023-04-09T04:17:20.688Z,101542.44
2023-04-09T04:22:29.276Z,101542.44
2023-04-09T04:27:39.349Z,101541.53
2023-04-09T04:32:46.000Z,101538.06
2023-04-09T04:37:53.810Z,101544.13
2023-04-09T04:43:01.111Z,101545.88
2023-04-09T04:48:08.434Z,101538.94
2023-04-09T04:53:16.742Z,101543.25
2023-04-09T04:58:28.584Z,101539.81
2023-04-09T05:03:38.167Z,101542.41
2023-04-09T05:09:04.023Z,101545.91
2023-04-09T05:14:19.281Z,101542.44
2023-04-09T05:19:25.912Z,101555.44
2023-04-09T05:24:40.045Z,101553.75
2023-04-09T05:29:47.062Z,101560.69
2023-04-09T05:34:53.489Z,101558.09
2023-04-09T05:40:02.378Z,101561.56
2023-04-09T05:45:11.939Z,101558.16
2023-04-09T05:50:26.142Z,101563.34
2023-04-09T05:55:36.437Z,101554.72
2023-04-09T06:00:43.122Z,101559.97
2023-04-09T06:05:49.851Z,101578.16
2023-04-09T06:10:58.531Z,101577.31
2023-04-09T06:16:07.590Z,101573.88
2023-04-09T06:21:15.517Z,101580.84
2023-04-09T06:26:26.580Z,101587.75
2023-04-09T06:31:33.813Z,101591.25
2023-04-09T06:36:40.892Z,101585.19
2023-04-09T06:41:51.171Z,101591.25
2023-04-09T06:47:15.034Z,101586.91
2023-04-09T06:52:22.511Z,101591.28
2023-04-09T06:57:31.039Z,101600.78
2023-04-09T07:02:39.974Z,101605.13
2023-04-09T07:07:47.113Z,101600.78
2023-04-09T07:12:57.224Z,101610.38
2023-04-09T07:18:10.120Z,101607.75
2023-04-09T07:23:17.716Z,101617.31
2023-04-09T07:28:28.223Z,101618.16
2023-04-09T07:33:34.644Z,101612.03
2023-04-09T07:38:44.184Z,101621.56
2023-04-09T07:43:52.518Z,101619.81
2023-04-09T07:48:58.880Z,101619.81
2023-04-09T07:54:05.562Z,101616.31
2023-04-09T07:59:15.740Z,101620.63
2023-04-09T08:04:25.070Z,101626.69
2023-04-09T08:09:32.140Z,101621.47
2023-04-09T08:14:41.825Z,101617.97
2023-04-09T08:19:55.208Z,101618.78
2023-04-09T08:25:06.376Z,101615.25
2023-04-09T08:30:18.780Z,101614.25
2023-04-09T08:35:29.364Z,101623.75
2023-04-09T08:40:40.181Z,101620.16
2023-04-09T08:46:01.322Z,101620.06
2023-04-09T08:51:18.950Z,101620.00
2023-04-09T08:56:30.301Z,101618.19
2023-04-09T09:01:48.069Z,101614.63
2023-04-09T09:07:12.024Z,101620.56
2023-04-09T09:12:42.058Z,101620.47
2023-04-09T09:18:00.269Z,101616.06
2023-04-09T09:23:09.777Z,101624.75
2023-04-09T09:28:18.912Z,101628.13
2023-04-09T09:33:36.456Z,101622.75
2023-04-09T09:38:59.636Z,101629.63
2023-04-09T09:44:10.652Z,101633.09
2023-04-09T09:49:30.993Z,101632.19
2023-04-09T09:54:49.692Z,101631.38
2023-04-09T10:00:10.676Z,101633.81
2023-04-09T10:05:28.838Z,101635.56
2023-04-09T10:10:39.256Z,101632.94
2023-04-09T10:15:53.988Z,101624.19
2023-04-09T10:21:15.804Z,101623.28
2023-04-09T10:26:31.434Z,101618.72
2023-04-09T10:31:58.777Z,101623.91
2023-04-09T10:37:19.624Z,101626.44
2023-04-09T10:42:39.735Z,101624.81
2023-04-09T10:47:55.864Z,101611.53
2023-04-09T10:53:06.676Z,101621.00
2023-04-09T10:58:16.080Z,101611.25
2023-04-09T11:03:30.930Z,101615.63
2023-04-09T11:08:44.380Z,101618.13
2023-04-09T11:14:07.541Z,101612.75
2023-04-09T11:19:16.184Z,101616.19
2023-04-09T11:24:26.376Z,101608.22
2023-04-09T11:29:39.886Z,101609.69
2023-04-09T11:34:49.710Z,101611.22
2023-04-09T11:39:58.939Z,101609.53
2023-04-09T11:45:13.833Z,101605.81
2023-04-09T11:50:26.251Z,101599.31
2023-04-09T11:55:37.455Z,101599.13
2023-04-09T12:00:47.403Z,101594.47
2023-04-09T12:05:55.266Z,101592.44
2023-04-09T12:11:14.889Z,101591.22
2023-04-09T12:16:23.554Z,101592.75
2023-04-09T12:21:51.422Z,101588.88
2023-04-09T12:27:00.628Z,101581.03
2023-04-09T12:32:09.294Z,101575.00
2023-04-09T12:37:18.141Z,101571.34
2023-04-09T12:42:29.865Z,101566.97
2023-04-09T12:47:38.275Z,101576.22
2023-04-09T12:52:48.794Z,101565.72
2023-04-09T12:58:00.033Z,101561.38
2023-04-09T13:03:15.091Z,101562.25
2023-04-09T13:08:25.988Z,101548.66
2023-04-09T13:13:39.844Z,101548.50
2023-04-09T13:18:55.129Z,101542.19
2023-04-09T13:24:09.165Z,101532.66
2023-04-09T13:29:24.484Z,101528.19
2023-04-09T13:34:36.816Z,101526.78
2023-04-09T13:39:49.635Z,101533.69
2023-04-09T13:45:04.256Z,101525.72
2023-04-09T13:50:13.613Z,101510.78
2023-04-09T13:55:22.895Z,101519.31
2023-04-09T14:00:32.957Z,101512.41
2023-04-09T14:05:41.254Z,101514.88
2023-04-09T14:10:49.771Z,101514.66
2023-04-09T14:16:00.994Z,101512.81
2023-04-09T14:21:12.810Z,101515.31
2023-04-09T14:26:23.493Z,101512.34
2023-04-09T14:31:35.252Z,101508.09
2023-04-09T14:36:46.164Z,101510.13
2023-04-09T14:41:55.985Z,101507.69
2023-04-09T14:47:08.121Z,101505.16
2023-04-09T14:52:20.675Z,101504.38
2023-04-09T14:57:31.963Z,101501.81
2023-04-09T15:02:43.098Z,101502.59
2023-04-09T15:07:57.839Z,101510.47
2023-04-09T15:13:06.888Z,101507.00
2023-04-09T15:18:22.640Z,101500.97
2023-04-09T15:23:36.149Z,101503.81
2023-04-09T15:28:44.734Z,101502.19
2023-04-09T15:33:55.588Z,101510.31
2023-04-09T15:39:08.667Z,101512.22
2023-04-09T15:44:24.209Z,101511.53
2023-04-09T15:49:44.132Z,101507.34
2023-04-09T15:54:57.897Z,101510.06
2023-04-09T16:00:11.187Z,101516.38
2023-04-09T16:05:25.041Z,101527.19
2023-04-09T16:10:33.964Z,101530.09
2023-04-09T16:15:46.400Z,101531.22
2023-04-09T16:21:04.185Z,101540.19
2023-04-09T16:26:14.718Z,101543.28
2023-04-09T16:31:26.531Z,101552.22
2023-04-09T16:36:45.554Z,101552.50
2023-04-09T16:41:59.896Z,101550.91
2023-04-09T16:47:13.279Z,101543.22
2023-04-09T16:52:37.073Z,101546.94
2023-04-09T16:57:58.802Z,101550.53
2023-04-09T17:03:20.896Z,101554.19
2023-04-09T17:08:41.274Z,101562.22
2023-04-09T17:13:53.609Z,101567.50
2023-04-09T17:19:04.915Z,101576.41
2023-04-09T17:24:21.278Z,101579.97
2023-04-09T17:29:35.891Z,101589.66
2023-04-09T17:34:54.496Z,101584.38
2023-04-09T17:40:11.143Z,101586.97
2023-04-09T17:45:24.759Z,101600.19
2023-04-09T17:50:41.891Z,101606.47
2023-04-09T17:55:58.067Z,101617.78
2023-04-09T18:01:19.487Z,101617.75
2023-04-09T18:06:35.629Z,101620.47
2023-04-09T18:11:58.668Z,101623.22
2023-04-09T18:17:25.737Z,101618.88
2023-04-09T18:22:43.621Z,101617.25
2023-04-09T19:06:50.039Z,101653.16
2023-04-09T19:12:02.831Z,101648.88
2023-04-09T19:17:19.210Z,101657.59
2023-04-09T19:22:39.611Z,101656.69
2023-04-09T19:27:58.786Z,101667.13
2023-04-09T19:33:15.828Z,101668.00
2023-04-09T19:38:33.576Z,101674.09
2023-04-09T19:43:53.370Z,101668.00
2023-04-09T19:49:09.116Z,101674.16
2023-04-09T19:54:28.111Z,101667.22
2023-04-09T19:59:44.492Z,101672.44
2023-04-09T20:05:00.657Z,101669.81
2023-04-09T20:10:19.395Z,101673.28
2023-04-09T20:15:40.425Z,101667.25
2023-04-09T20:21:02.484Z,101668.94
2023-04-09T20:26:19.095Z,101662.91
2023-04-09T20:31:44.270Z,101662.88
2023-04-09T20:36:59.162Z,101657.72
2023-04-09T20:42:20.405Z,101662.91
2023-04-09T20:47:41.908Z,101657.72
2023-04-09T20:52:55.711Z,101666.47
2023-04-09T20:58:10.404Z,101661.28
2023-04-09T21:03:22.083Z,101658.75
2023-04-09T21:08:33.585Z,101657.06
2023-04-09T21:13:54.573Z,101662.34
2023-04-09T21:19:12.890Z,101654.56
2023-04-09T21:24:29.771Z,101657.16
2023-04-09T21:29:40.171Z,101656.31
2023-04-09T21:34:53.354Z,101659.81
2023-04-09T21:40:03.669Z,101655.44
2023-04-09T21:45:19.624Z,101662.31
2023-04-09T21:50:28.496Z,101670.13
2023-04-09T21:55:39.034Z,101677.88
2023-04-09T22:00:49.968Z,101677.91
2023-04-09T22:05:56.891Z,101671.81
2023-04-09T22:11:04.207Z,101660.53
2023-04-09T22:16:13.113Z,101673.31
2023-04-09T22:21:20.153Z,101669.88
2023-04-09T22:26:28.536Z,101674.22
2023-04-09T22:31:37.556Z,101667.19
2023-04-09T22:36:44.303Z,101664.59
2023-04-09T22:41:51.409Z,101671.44
2023-04-09T22:46:59.502Z,101667.16
2023-04-09T22:52:07.075Z,101674.97
2023-04-09T22:57:15.422Z,101669.78
2023-04-09T23:02:24.197Z,101669.75
2023-04-09T23:07:31.199Z,101675.75
2023-04-09T23:12:37.853Z,101669.69
2023-04-09T23:17:46.176Z,101661.00
2023-04-09T23:22:53.201Z,101670.41
2023-04-09T23:27:59.900Z,101664.28
2023-04-09T23:33:08.212Z,101662.53
2023-04-09T23:38:15.592Z,101660.69
2023-04-09T23:43:22.095Z,101662.41
2023-04-09T23:48:30.305Z,101659.81
2023-04-09T23:53:37.120Z,101668.22
2023-04-09T23:58:44.275Z,101649.19
